Time;durP1;ratioP1;P1;durP2;ratioP2;P2;SDS_P1;SDS_P2;PMS_P1;PMS_P2;Temp;Humidity;BMP_temperature;BMP_pressure;BME280_temperature;BME280_humidity;BME280_pressure;Samples;Min_cycle;Max_cycle;Signal;HPM_P1;HPM_P2
2023/07/06 00:01:45;;;;;;;5.55;2.08;;;;;;;17.49;78.17;100461.22;4989293;28;20090;-67
2023/07/06 00:04:14;;;;;;;5.37;2.63;;;;;;;17.51;78.24;100465.50;4968580;28;20066;-67
2023/07/06 00:06:42;;;;;;;3.92;2.03;;;;;;;17.54;78.31;100459.06;4963831;28;20050;-67
2023/07/06 00:09:09;;;;;;;3.78;2.25;;;;;;;17.60;78.70;100455.09;4972457;28;20074;-69
2023/07/06 00:11:38;;;;;;;3.42;2.28;;;;;;;17.67;78.41;100456.34;4972257;28;20055;-67
2023/07/06 00:14:07;;;;;;;3.40;1.90;;;;;;;17.75;77.58;100464.69;4965904;28;20046;-68
2023/07/06 00:16:35;;;;;;;5.45;2.72;;;;;;;17.81;76.17;100457.00;4979223;28;20046;-67
2023/07/06 00:19:03;;;;;;;3.17;2.30;;;;;;;17.75;76.03;100454.81;4991690;28;20053;-67
2023/07/06 00:21:30;;;;;;;4.30;2.17;;;;;;;17.65;76.44;100453.78;4974690;28;20051;-67
2023/07/06 00:23:57;;;;;;;3.35;2.05;;;;;;;17.60;77.17;100463.97;4971511;28;20066;-67
2023/07/06 00:26:24;;;;;;;3.55;2.10;;;;;;;17.53;77.85;100455.53;4955212;28;20110;-67
2023/07/06 00:28:53;;;;;;;3.15;2.28;;;;;;;17.51;78.58;100464.66;4991500;28;20530;-68
2023/07/06 00:31:31;;;;;;;4.68;2.40;;;;;;;17.45;79.13;100467.81;4982093;28;20050;-67
2023/07/06 00:34:05;;;;;;;2.00;1.80;;;;;;;17.43;80.03;100467.06;4991975;28;20070;-67
2023/07/06 00:36:37;;;;;;;8.15;2.75;;;;;;;17.50;79.63;100460.25;4960497;28;20065;-67
2023/07/06 00:39:06;;;;;;;3.55;2.13;;;;;;;17.46;79.87;100464.16;4970669;28;20050;-67
2023/07/06 00:41:33;;;;;;;3.63;1.90;;;;;;;17.43;80.91;100456.34;4971940;28;20053;-68
2023/07/06 00:44:00;;;;;;;5.13;2.17;;;;;;;17.48;80.77;100459.50;4971080;28;20130;-67
2023/07/06 00:46:33;;;;;;;4.15;1.90;;;;;;;17.56;80.42;100458.97;4975769;28;20114;-67
2023/07/06 00:49:02;;;;;;;3.47;2.22;;;;;;;17.50;79.97;100452.22;4974272;28;20058;-67
2023/07/06 00:51:34;;;;;;;4.18;1.90;;;;;;;17.44;80.49;100450.03;4985572;28;20038;-68
2023/07/06 00:54:08;;;;;;;2.60;1.98;;;;;;;17.45;81.57;100463.31;4967259;28;20043;-67
2023/07/06 00:56:40;;;;;;;3.75;2.33;;;;;;;17.45;81.23;100455.28;4957380;28;20061;-67
2023/07/06 00:59:11;;;;;;;5.65;2.97;;;;;;;17.43;81.12;100459.03;4971940;28;20047;-66
2023/07/06 01:01:41;;;;;;;3.17;2.17;;;;;;;17.40;81.45;100467.28;4987370;28;20069;-67
2023/07/06 01:04:13;;;;;;;4.63;2.65;;;;;;;17.41;81.56;100466.31;4969586;28;20046;-69
2023/07/06 01:06:50;;;;;;;6.10;1.90;;;;;;;17.37;81.52;100464.81;4961913;28;20129;-67
2023/07/06 01:09:19;;;;;;;7.10;2.58;;;;;;;17.28;82.34;100455.66;4980938;28;20051;-67
2023/07/06 01:11:49;;;;;;;5.43;2.50;;;;;;;17.21;82.97;100457.06;4985362;28;20125;-67
2023/07/06 01:14:16;;;;;;;;;;;;;;;17.19;83.68;100457.19;4968371;28;20103;-67
2023/07/06 01:16:50;;;;;;;3.78;2.03;;;;;;;17.22;85.61;100457.91;4962774;28;19926;-68
2023/07/06 01:19:34;;;;;;;4.05;2.40;;;;;;;17.32;85.53;100458.94;4970823;28;20175;-67
2023/07/06 01:22:32;;;;;;;3.47;2.30;;;;;;;17.33;86.24;100466.84;4968117;28;20575;-68
2023/07/06 01:25:26;;;;;;;4.78;2.67;;;;;;;17.42;85.46;100460.00;4984015;28;20038;-68
2023/07/06 01:28:13;;;;;;;4.70;2.50;;;;;;;17.39;85.81;100452.19;4973588;28;20161;-68
2023/07/06 01:30:53;;;;;;;4.60;2.10;;;;;;;17.38;86.40;100462.03;4972104;28;20054;-67
2023/07/06 01:33:55;;;;;;;4.80;2.15;;;;;;;17.34;86.31;100457.88;4988145;28;20055;-67
2023/07/06 01:36:34;;;;;;;3.90;2.22;;;;;;;17.33;86.75;100466.84;4963944;28;20146;-67
2023/07/06 01:39:16;;;;;;;4.78;2.45;;;;;;;17.26;87.45;100468.31;4977040;28;20081;-67
2023/07/06 01:41:43;;;;;;;3.45;2.47;;;;;;;17.22;87.73;100460.59;4970802;28;20039;-67
2023/07/06 01:44:13;;;;;;;5.47;2.50;;;;;;;17.23;88.28;100467.66;4986037;28;20047;-67
2023/07/06 01:46:48;;;;;;;3.33;2.50;;;;;;;17.22;88.53;100468.63;4972641;28;20043;-67
2023/07/06 01:49:14;;;;;;;6.43;2.60;;;;;;;17.15;89.12;100474.44;4975160;28;20054;-67
2023/07/06 01:51:56;;;;;;;5.32;2.67;;;;;;;17.12;89.86;100477.34;4989932;28;20047;-68
2023/07/06 01:54:31;;;;;;;6.20;2.60;;;;;;;17.06;90.33;100474.25;4975606;28;20511;-67
2023/07/06 01:57:06;;;;;;;4.60;2.50;;;;;;;17.05;90.96;100478.75;4983013;28;20078;-68
2023/07/06 01:59:37;;;;;;;5.82;2.80;;;;;;;17.04;89.94;100479.69;4992705;28;20054;-68
2023/07/06 02:02:07;;;;;;;7.60;3.15;;;;;;;17.00;89.64;100478.22;4993012;28;20049;-67
2023/07/06 02:04:37;;;;;;;3.58;2.78;;;;;;;17.02;89.84;100473.59;4981067;28;20054;-67
2023/07/06 02:07:06;;;;;;;3.15;2.40;;;;;;;17.09;89.28;100485.59;4964121;28;20050;-68
2023/07/06 02:09:42;;;;;;;6.18;2.50;;;;;;;17.01;89.53;100481.75;4972474;28;20042;-67
2023/07/06 02:12:11;;;;;;;5.38;2.30;;;;;;;17.01;90.01;100487.09;4970237;28;20093;-68
2023/07/06 02:14:38;;;;;;;3.47;2.47;;;;;;;16.99;90.41;100494.41;4970173;28;20062;-68
2023/07/06 02:17:07;;;;;;;4.93;2.97;;;;;;;16.86;90.61;100478.34;4963507;28;20061;-68
2023/07/06 02:19:35;;;;;;;4.03;2.70;;;;;;;16.81;91.84;100493.88;4975489;28;20082;-66
2023/07/06 02:22:03;;;;;;;7.60;3.13;;;;;;;16.65;92.79;100478.06;4972873;28;20053;-67
2023/07/06 02:24:31;;;;;;;5.05;2.70;;;;;;;16.59;93.63;100488.31;4974349;28;20061;-67
2023/07/06 02:26:58;;;;;;;3.78;2.50;;;;;;;16.48;95.14;100491.75;4961679;28;20046;-67
2023/07/06 02:29:24;;;;;;;5.43;2.90;;;;;;;16.39;96.17;100490.53;4969302;28;20049;-67
2023/07/06 02:31:51;;;;;;;7.03;2.88;;;;;;;16.27;97.10;100480.72;4969454;28;20117;-68
2023/07/06 02:34:24;;;;;;;4.72;2.75;;;;;;;16.29;97.45;100486.81;4969818;28;20467;-68
2023/07/06 02:36:55;;;;;;;7.65;2.72;;;;;;;16.23;97.69;100484.53;4958921;28;20125;-67
2023/07/06 02:39:26;;;;;;;7.07;2.95;;;;;;;16.19;98.45;100485.75;4965782;28;20142;-67
2023/07/06 02:41:56;;;;;;;4.40;2.83;;;;;;;16.10;99.36;100478.34;4969149;28;20375;-66
2023/07/06 02:44:24;;;;;;;8.55;3.42;;;;;;;16.08;99.36;100488.28;4984211;28;20050;-66
2023/07/06 02:46:51;;;;;;;5.07;2.63;;;;;;;16.06;99.64;100484.84;4964328;28;20054;-67
2023/07/06 02:49:19;;;;;;;7.07;3.08;;;;;;;15.99;100.00;100479.09;4971121;28;20132;-67
2023/07/06 02:51:48;;;;;;;4.50;2.75;;;;;;;15.98;100.00;100480.03;4972657;28;20456;-67
2023/07/06 02:54:17;;;;;;;4.80;3.05;;;;;;;15.92;100.00;100485.78;4965204;28;20058;-67
2023/07/06 02:56:45;;;;;;;7.82;3.13;;;;;;;15.90;100.00;100493.03;4962503;28;20092;-66
2023/07/06 02:59:13;;;;;;;4.25;2.70;;;;;;;15.86;100.00;100490.72;4987422;28;20057;-68
2023/07/06 03:01:41;;;;;;;4.75;2.88;;;;;;;15.81;100.00;100492.81;4967646;28;20047;-68
2023/07/06 03:04:11;;;;;;;4.38;2.90;;;;;;;15.73;100.00;100488.88;4966912;28;20047;-69
2023/07/06 03:06:38;;;;;;;5.50;2.73;;;;;;;15.72;100.00;100496.97;4965130;28;20175;-68
2023/07/06 03:09:07;;;;;;;5.45;2.88;;;;;;;15.70;100.00;100493.53;4969620;28;20477;-68
2023/07/06 03:11:34;;;;;;;4.78;3.05;;;;;;;15.65;100.00;100492.97;4973363;28;20145;-67
2023/07/06 03:14:02;;;;;;;6.82;2.88;;;;;;;15.56;100.00;100491.78;4972717;28;20047;-67
2023/07/06 03:16:39;;;;;;;5.32;2.97;;;;;;;15.60;100.00;100495.09;4981228;28;20053;-68
2023/07/06 03:19:12;;;;;;;13.38;3.10;;;;;;;15.60;100.00;100493.28;4970046;28;20051;-69
2023/07/06 03:21:39;;;;;;;6.13;2.85;;;;;;;15.59;100.00;100502.25;4988153;28;20070;-68
2023/07/06 03:24:09;;;;;;;10.55;3.17;;;;;;;15.55;100.00;100500.75;4974519;28;20047;-68
2023/07/06 03:26:36;;;;;;;;;;;;;;;15.57;100.00;100504.19;4973011;28;20623;-67
2023/07/06 03:29:05;;;;;;;5.65;2.90;;;;;;;15.51;100.00;100493.00;4973663;28;19933;-69
2023/07/06 03:31:32;;;;;;;5.05;3.05;;;;;;;15.52;100.00;100503.59;4984994;28;20043;-68
2023/07/06 03:34:00;;;;;;;7.25;3.13;;;;;;;15.53;100.00;100507.97;4974162;28;20454;-69
2023/07/06 03:36:31;;;;;;;6.18;2.90;;;;;;;15.54;100.00;100506.16;4970914;28;20675;-67
2023/07/06 03:39:01;;;;;;;9.73;3.15;;;;;;;15.56;100.00;100509.63;4967048;28;20079;-68
2023/07/06 03:41:28;;;;;;;6.22;3.42;;;;;;;15.52;100.00;100497.41;4974999;28;20051;-67
2023/07/06 03:43:58;;;;;;;6.93;3.20;;;;;;;15.52;100.00;100505.41;4977610;28;20133;-68
2023/07/06 03:46:32;;;;;;;7.53;3.38;;;;;;;15.47;100.00;100508.34;4983395;28;20055;-68
2023/07/06 03:49:00;;;;;;;7.53;3.05;;;;;;;15.42;100.00;100511.31;4980731;28;20042;-68
2023/07/06 03:51:26;;;;;;;4.82;3.33;;;;;;;15.38;100.00;100520.50;4968463;28;20109;-67
2023/07/06 03:53:53;;;;;;;6.82;3.13;;;;;;;15.37;100.00;100523.28;4988688;28;20234;-69
2023/07/06 03:56:27;;;;;;;8.75;3.70;;;;;;;15.48;100.00;100514.56;4972476;28;20149;-67
2023/07/06 03:58:57;;;;;;;4.60;2.78;;;;;;;15.61;100.00;100513.69;4965091;28;20603;-68
2023/07/06 04:01:24;;;;;;;5.75;3.40;;;;;;;15.72;100.00;100508.50;4968116;28;20133;-68
2023/07/06 04:03:52;;;;;;;5.10;3.40;;;;;;;15.81;100.00;100507.03;4981494;28;20050;-68
2023/07/06 04:06:19;;;;;;;5.68;3.28;;;;;;;15.88;100.00;100507.47;4963916;28;20058;-67
2023/07/06 04:08:49;;;;;;;4.55;3.33;;;;;;;15.82;100.00;100508.75;4964289;28;20050;-68
2023/07/06 04:11:16;;;;;;;5.32;3.10;;;;;;;15.79;100.00;100508.94;4978511;28;20046;-67
2023/07/06 04:13:43;;;;;;;5.82;3.38;;;;;;;15.82;100.00;100507.88;4988613;28;20060;-67
2023/07/06 04:16:18;;;;;;;5.97;3.53;;;;;;;15.94;100.00;100507.06;4972470;28;20036;-67
2023/07/06 04:18:45;;;;;;;7.80;3.63;;;;;;;16.07;100.00;100516.81;4963669;28;20486;-67
2023/07/06 04:21:19;;;;;;;5.43;3.08;;;;;;;16.08;100.00;100513.16;4969879;28;20051;-67
2023/07/06 04:23:47;;;;;;;4.93;3.15;;;;;;;16.16;100.00;100523.34;4976533;28;20109;-67
2023/07/06 04:26:16;;;;;;;6.38;3.20;;;;;;;16.16;100.00;100523.34;4980907;28;20049;-65
2023/07/06 04:28:44;;;;;;;7.13;3.30;;;;;;;16.18;100.00;100520.59;4957671;28;20388;-67
2023/07/06 04:31:14;;;;;;;5.20;3.35;;;;;;;16.17;100.00;100524.22;4982846;28;20059;-68
2023/07/06 04:33:43;;;;;;;5.45;3.47;;;;;;;16.12;100.00;100529.84;4969702;28;20050;-67
2023/07/06 04:36:10;;;;;;;6.43;3.35;;;;;;;16.04;100.00;100529.53;4987614;28;20087;-67
2023/07/06 04:38:38;;;;;;;7.22;3.67;;;;;;;15.94;100.00;100528.41;4964442;28;20047;-68
2023/07/06 04:41:08;;;;;;;6.30;3.80;;;;;;;15.84;100.00;100520.19;4972178;28;20042;-68
2023/07/06 04:43:36;;;;;;;5.75;3.30;;;;;;;15.78;100.00;100529.44;4984749;28;20129;-66
2023/07/06 04:46:03;;;;;;;8.27;3.65;;;;;;;15.72;100.00;100526.34;4978709;28;20038;-68
2023/07/06 04:48:33;;;;;;;7.95;3.72;;;;;;;15.70;100.00;100530.91;4962555;28;20043;-69
2023/07/06 04:50:59;;;;;;;6.70;3.20;;;;;;;15.68;100.00;100528.34;4966825;28;20126;-67
2023/07/06 04:53:26;;;;;;;6.60;3.33;;;;;;;15.68;100.00;100533.69;4968537;28;20240;-68
2023/07/06 04:55:54;;;;;;;5.80;3.53;;;;;;;15.67;100.00;100531.13;4970590;28;20039;-68
2023/07/06 04:58:21;;;;;;;5.78;3.22;;;;;;;15.70;100.00;100539.78;4966514;28;20516;-67
2023/07/06 05:00:50;;;;;;;5.63;3.20;;;;;;;15.77;100.00;100534.88;4971249;28;20050;-69
2023/07/06 05:03:17;;;;;;;7.00;3.67;;;;;;;15.88;100.00;100535.03;4986326;28;20051;-67
2023/07/06 05:05:46;;;;;;;7.50;3.40;;;;;;;16.01;100.00;100525.25;4970440;28;20589;-67
2023/07/06 05:08:19;;;;;;;6.93;3.28;;;;;;;16.18;100.00;100536.59;4975528;28;20414;-68
2023/07/06 05:10:50;;;;;;;4.72;2.80;;;;;;;16.30;100.00;100536.63;4967366;28;20128;-67
2023/07/06 05:13:21;;;;;;;6.18;3.10;;;;;;;16.43;100.00;100533.97;4965692;28;20054;-69
2023/07/06 05:15:49;;;;;;;6.35;3.20;;;;;;;16.30;100.00;100533.94;4970290;28;20038;-68
2023/07/06 05:18:19;;;;;;;7.00;3.58;;;;;;;16.27;100.00;100538.63;4965318;28;20046;-68
2023/07/06 05:20:49;;;;;;;5.53;3.55;;;;;;;16.24;100.00;100537.03;4958227;28;20047;-66
2023/07/06 05:23:22;;;;;;;4.88;3.08;;;;;;;16.34;100.00;100526.59;4990954;28;20057;-68
2023/07/06 05:25:54;;;;;;;8.20;3.50;;;;;;;16.54;100.00;100531.38;4974198;28;20038;-67
2023/07/06 05:28:21;;;;;;;6.97;3.33;;;;;;;16.67;100.00;100539.47;4961285;28;20593;-68
2023/07/06 05:30:49;;;;;;;5.90;3.20;;;;;;;16.74;100.00;100543.41;4970005;28;20062;-67
2023/07/06 05:33:17;;;;;;;6.72;3.25;;;;;;;16.76;100.00;100538.81;4973180;28;20540;-67
2023/07/06 05:35:44;;;;;;;9.25;3.10;;;;;;;16.78;99.51;100545.78;4975396;28;20046;-68
2023/07/06 05:38:10;;;;;;;7.78;3.45;;;;;;;16.66;100.00;100543.09;4959755;28;20078;-67
2023/07/06 05:40:41;;;;;;;6.97;3.40;;;;;;;16.66;100.00;100556.47;4969384;28;20071;-69
2023/07/06 05:43:09;;;;;;;;;;;;;;;16.74;100.00;100559.44;4970166;28;20108;-68
2023/07/06 05:45:37;;;;;;;6.25;3.20;;;;;;;16.81;99.18;100552.72;4985387;28;19953;-68
2023/07/06 05:48:05;;;;;;;6.75;3.60;;;;;;;16.92;98.94;100558.16;4964870;28;20558;-67
2023/07/06 05:50:32;;;;;;;7.80;3.47;;;;;;;16.95;99.28;100555.28;4970873;28;20050;-67
2023/07/06 05:53:02;;;;;;;7.75;3.60;;;;;;;17.04;97.54;100545.72;4968150;28;20497;-68
2023/07/06 05:55:30;;;;;;;7.25;3.78;;;;;;;17.14;97.87;100555.69;4981310;28;20530;-68
2023/07/06 05:57:57;;;;;;;7.93;3.63;;;;;;;17.29;96.57;100552.88;4964198;28;20149;-67
2023/07/06 06:00:24;;;;;;;7.53;4.10;;;;;;;17.37;94.68;100550.47;4962175;28;20539;-69
2023/07/06 06:02:51;;;;;;;9.45;4.45;;;;;;;17.28;94.57;100557.38;4967331;28;20125;-66
2023/07/06 06:05:18;;;;;;;8.25;3.92;;;;;;;17.21;96.46;100568.59;4977688;28;20061;-68
2023/07/06 06:07:45;;;;;;;7.00;3.65;;;;;;;17.24;95.59;100569.25;4966280;28;20089;-68
2023/07/06 06:10:14;;;;;;;9.05;4.10;;;;;;;17.26;93.80;100580.72;4966280;28;20065;-66
2023/07/06 06:12:41;;;;;;;13.05;4.65;;;;;;;17.25;94.12;100579.00;4978111;28;20045;-67
2023/07/06 06:15:08;;;;;;;7.97;3.90;;;;;;;17.39;94.71;100586.88;4971986;28;20137;-68
2023/07/06 06:17:36;;;;;;;5.53;3.75;;;;;;;17.52;93.10;100586.84;4964215;28;20522;-69
2023/07/06 06:20:08;;;;;;;11.67;4.37;;;;;;;17.63;92.26;100586.91;4958461;28;20617;-69
2023/07/06 06:22:37;;;;;;;6.97;3.90;;;;;;;17.80;91.95;100580.34;4965583;28;20109;-67
2023/07/06 06:25:05;;;;;;;9.50;3.85;;;;;;;18.09;89.75;100588.91;4963172;28;20054;-68
2023/07/06 06:27:32;;;;;;;8.38;3.88;;;;;;;18.37;85.59;100587.69;4963245;28;20149;-67
2023/07/06 06:29:59;;;;;;;9.25;3.78;;;;;;;18.78;83.33;100597.91;4960526;28;20133;-69
2023/07/06 06:32:25;;;;;;;8.93;3.47;;;;;;;19.09;79.41;100589.16;4973426;28;20142;-66
2023/07/06 06:34:52;;;;;;;6.55;3.20;;;;;;;19.33;77.20;100601.63;4981837;28;20051;-69
2023/07/06 06:37:19;;;;;;;8.10;3.67;;;;;;;19.45;76.22;100598.81;4956366;28;20074;-69
2023/07/06 06:39:48;;;;;;;6.47;3.40;;;;;;;19.60;75.32;100608.34;4959397;28;20089;-67
2023/07/06 06:42:18;;;;;;;7.70;2.95;;;;;;;19.65;76.18;100593.69;4971527;28;20050;-71
2023/07/06 06:44:46;;;;;;;7.72;3.28;;;;;;;19.88;80.28;100593.50;4968083;28;20062;-72
2023/07/06 06:47:14;;;;;;;6.57;3.20;;;;;;;20.15;72.12;100603.78;4969268;28;20046;-77
2023/07/06 06:49:42;;;;;;;7.63;2.85;;;;;;;20.05;75.38;100599.31;4966845;28;20050;-75
2023/07/06 06:52:11;;;;;;;6.90;2.80;;;;;;;20.22;72.69;100606.81;4986314;28;20047;-76
2023/07/06 06:54:38;;;;;;;5.15;2.90;;;;;;;20.80;73.94;100604.56;4979116;28;20061;-75
2023/07/06 06:57:07;;;;;;;8.20;2.50;;;;;;;21.11;65.20;100598.22;4979482;28;20049;-76
2023/07/06 06:59:36;;;;;;;6.57;2.22;;;;;;;21.07;63.09;100594.13;4989109;28;20043;-76
2023/07/06 07:02:03;;;;;;;5.35;2.40;;;;;;;20.97;64.93;100595.91;4971704;28;20047;-74
2023/07/06 07:04:31;;;;;;;8.20;2.60;;;;;;;20.87;67.89;100581.53;4980081;28;20084;-76
2023/07/06 07:06:58;;;;;;;4.95;2.10;;;;;;;21.24;64.56;100595.38;4981002;28;20058;-76
2023/07/06 07:09:25;;;;;;;12.52;2.60;;;;;;;21.35;64.89;100590.72;4966683;28;20054;-77
2023/07/06 07:11:52;;;;;;;5.30;2.38;;;;;;;21.46;64.06;100581.69;4984595;28;20051;-76
2023/07/06 07:14:22;;;;;;;8.00;2.25;;;;;;;21.82;59.18;100612.56;4996448;28;20081;-77
2023/07/06 07:16:50;;;;;;;6.03;2.08;;;;;;;21.82;60.40;100601.78;4991968;28;20042;-73
2023/07/06 07:19:19;;;;;;;3.60;2.03;;;;;;;22.22;57.28;100590.06;4967888;28;20047;-72
2023/07/06 07:21:46;;;;;;;6.30;1.70;;;;;;;22.73;55.35;100584.31;4974546;28;20439;-72
2023/07/06 07:24:16;;;;;;;7.22;1.92;;;;;;;22.87;56.62;100586.59;4976636;28;20058;-75
2023/07/06 07:26:44;;;;;;;4.32;1.65;;;;;;;22.84;50.67;100594.13;4986983;28;20049;-73
2023/07/06 07:29:13;;;;;;;;;;;;;;;22.44;53.45;100595.16;4954193;28;20043;-74
2023/07/06 07:31:41;;;;;;;4.82;1.83;;;;;;;22.27;53.57;100596.75;4994536;28;20306;-72
2023/07/06 07:34:09;;;;;;;4.57;1.88;;;;;;;22.11;52.61;100588.34;4980929;28;20046;-72
2023/07/06 07:36:36;;;;;;;5.85;1.73;;;;;;;22.50;53.05;100601.84;4978007;28;20054;-71
2023/07/06 07:39:04;;;;;;;3.33;1.60;;;;;;;22.95;49.95;100591.28;4962386;28;20055;-72
2023/07/06 07:41:31;;;;;;;4.90;2.10;;;;;;;23.47;49.25;100588.91;4990137;28;20070;-72
2023/07/06 07:43:58;;;;;;;3.88;2.08;;;;;;;23.23;47.72;100600.28;4987869;28;20053;-72
2023/07/06 07:46:28;;;;;;;3.58;1.70;;;;;;;22.70;48.21;100585.47;4979648;28;20046;-70
2023/07/06 07:48:57;;;;;;;2.70;1.50;;;;;;;22.99;47.28;100600.78;4976861;28;20062;-70
2023/07/06 07:51:31;;;;;;;2.00;1.58;;;;;;;22.79;46.22;100602.69;4973327;28;20057;-73
2023/07/06 07:53:58;;;;;;;3.58;1.40;;;;;;;22.48;48.42;100596.59;4983300;28;20094;-72
2023/07/06 07:56:26;;;;;;;2.80;1.40;;;;;;;22.96;45.94;100604.63;4977501;28;20039;-74
2023/07/06 07:58:53;;;;;;;3.45;1.00;;;;;;;22.79;39.27;100593.75;4975230;28;20050;-73
2023/07/06 08:01:24;;;;;;;3.95;0.98;;;;;;;22.49;40.42;100582.09;4976311;28;20054;-73
2023/07/06 08:03:55;;;;;;;1.70;1.00;;;;;;;22.46;41.97;100590.50;4968855;28;20423;-73
2023/07/06 08:06:23;;;;;;;4.68;1.20;;;;;;;22.62;42.30;100598.00;4972721;28;20074;-71
2023/07/06 08:08:50;;;;;;;2.97;1.42;;;;;;;22.97;41.94;100598.25;4964308;28;20051;-72
2023/07/06 08:11:21;;;;;;;4.05;1.48;;;;;;;23.49;40.19;100595.88;4982285;28;20061;-74
2023/07/06 08:13:50;;;;;;;2.58;1.05;;;;;;;23.20;39.83;100573.56;4958918;28;20058;-76
2023/07/06 08:16:19;;;;;;;2.40;1.10;;;;;;;22.97;36.84;100587.44;4968959;28;20082;-76
2023/07/06 08:18:48;;;;;;;3.13;1.00;;;;;;;22.65;37.72;100597.72;4966974;28;20047;-74
2023/07/06 08:21:16;;;;;;;3.85;1.10;;;;;;;22.39;37.27;100589.34;4984879;28;20053;-74
2023/07/06 08:24:03;;;;;;;3.08;0.95;;;;;;;22.56;37.89;100588.63;4985449;28;20047;-74
2023/07/06 08:26:33;;;;;;;2.42;1.00;;;;;;;22.87;38.44;100597.41;4972342;28;20142;-74
2023/07/06 08:28:59;;;;;;;2.05;0.85;;;;;;;23.17;36.89;100592.75;4960592;28;20058;-71
2023/07/06 08:31:26;;;;;;;3.10;0.90;;;;;;;23.29;36.33;100595.16;4975222;28;20070;-73
2023/07/06 08:33:54;;;;;;;3.28;1.00;;;;;;;23.01;36.13;100586.13;4963149;28;20066;-75
2023/07/06 08:36:21;;;;;;;2.42;1.00;;;;;;;23.35;37.17;100602.63;4955719;28;20097;-76
2023/07/06 08:38:47;;;;;;;2.88;0.98;;;;;;;23.24;36.06;100591.16;4958652;28;21042;-72
2023/07/06 08:41:18;;;;;;;1.50;0.77;;;;;;;22.88;36.31;100611.75;4952909;28;20047;-74
2023/07/06 08:43:46;;;;;;;2.20;0.90;;;;;;;22.58;37.82;100610.06;4978630;28;20086;-73
2023/07/06 08:46:13;;;;;;;2.33;1.00;;;;;;;22.46;38.37;100601.28;4967256;28;20118;-75
2023/07/06 08:48:41;;;;;;;2.08;1.00;;;;;;;22.80;37.91;100600.84;4972498;28;20048;-75
2023/07/06 08:51:27;;;;;;;3.50;0.95;;;;;;;23.40;35.50;100597.66;4973562;28;20050;-74
2023/07/06 08:54:01;;;;;;;1.35;1.10;;;;;;;23.44;34.84;100609.00;4973795;28;20538;-74
2023/07/06 08:56:33;;;;;;;2.97;0.90;;;;;;;23.41;35.60;100601.19;4975464;28;20121;-74
2023/07/06 08:59:03;;;;;;;1.40;0.82;;;;;;;23.14;35.10;100611.97;4976423;28;20815;-74
2023/07/06 09:01:32;;;;;;;2.13;1.15;;;;;;;22.94;35.91;100603.09;4980311;28;20107;-74
2023/07/06 09:04:11;;;;;;;4.00;1.00;;;;;;;22.93;36.54;100598.69;4971309;28;20053;-72
2023/07/06 09:06:45;;;;;;;3.50;1.77;;;;;;;23.32;35.84;100605.63;4962538;28;20072;-74
2023/07/06 09:09:13;;;;;;;2.53;1.00;;;;;;;23.62;35.63;100595.56;4986539;28;20122;-73
2023/07/06 09:11:42;;;;;;;2.65;0.90;;;;;;;23.91;33.13;100596.25;4968739;28;20485;-72
2023/07/06 09:14:16;;;;;;;2.40;1.02;;;;;;;24.00;33.61;100608.84;4965810;28;20169;-71
2023/07/06 09:16:47;;;;;;;3.15;1.15;;;;;;;24.25;32.43;100593.72;4976165;28;20043;-72
2023/07/06 09:19:17;;;;;;;1.13;0.85;;;;;;;24.58;32.10;100600.25;4968600;28;20565;-69
2023/07/06 09:21:47;;;;;;;;;;;;;;;24.49;31.67;100595.81;4983542;28;20058;-70
2023/07/06 09:24:14;;;;;;;3.50;1.00;;;;;;;23.69;33.05;100602.06;4968702;28;20606;-71
2023/07/06 09:26:44;;;;;;;2.72;1.00;;;;;;;23.15;33.24;100608.25;4972944;28;20055;-73
2023/07/06 09:29:18;;;;;;;;;;;;;;;22.93;34.66;100602.22;4967079;28;20067;-73
2023/07/06 09:31:47;;;;;;;1.52;0.80;;;;;;;22.87;34.56;100596.53;4974112;28;19922;-75
2023/07/06 09:34:31;;;;;;;1.75;0.90;;;;;;;22.73;33.89;100604.06;4979023;28;20502;-70
2023/07/06 09:36:59;;;;;;;4.07;0.95;;;;;;;22.47;34.63;100594.03;4972556;28;20059;-72
2023/07/06 09:39:27;;;;;;;2.50;0.93;;;;;;;22.68;34.43;100597.41;4962987;28;20051;-69
2023/07/06 09:41:55;;;;;;;2.90;1.08;;;;;;;22.83;34.38;100587.88;4967406;28;20234;-72
2023/07/06 09:44:31;;;;;;;2.10;1.08;;;;;;;22.77;34.81;100583.09;4975480;28;20074;-74
2023/07/06 09:46:59;;;;;;;3.55;0.80;;;;;;;23.02;34.23;100593.22;4964736;28;20527;-73
2023/07/06 09:49:32;;;;;;;2.45;1.27;;;;;;;23.21;33.56;100567.16;4962450;28;20047;-73
2023/07/06 09:52:05;;;;;;;2.35;0.90;;;;;;;23.11;34.25;100579.84;4980207;28;20058;-72
2023/07/06 09:54:50;;;;;;;2.65;1.10;;;;;;;22.99;34.62;100595.38;4969435;28;20055;-71
2023/07/06 09:57:19;;;;;;;3.50;1.25;;;;;;;22.88;34.65;100588.31;4968435;28;20045;-71
2023/07/06 09:59:48;;;;;;;2.60;0.90;;;;;;;22.67;34.60;100598.41;4963391;28;20051;-71
2023/07/06 10:02:41;;;;;;;1.90;1.00;;;;;;;22.49;34.76;100594.75;4968898;28;20050;-71
2023/07/06 10:05:29;;;;;;;1.92;1.20;;;;;;;22.57;35.42;100590.31;4968499;28;20507;-74
2023/07/06 10:08:17;;;;;;;2.33;1.00;;;;;;;22.78;35.12;100595.59;4987483;28;20061;-71
2023/07/06 10:11:20;;;;;;;1.92;1.20;;;;;;;22.94;34.58;100606.63;4968747;28;20110;-69
2023/07/06 10:14:01;;;;;;;2.53;1.40;;;;;;;23.10;34.41;100597.91;4975284;28;20058;-69
2023/07/06 10:16:42;;;;;;;1.92;1.40;;;;;;;23.47;34.42;100597.03;4983175;28;20132;-71
2023/07/06 10:19:31;;;;;;;2.80;1.23;;;;;;;23.58;34.18;100599.59;4977433;28;20134;-69
2023/07/06 10:22:10;;;;;;;2.17;1.17;;;;;;;23.52;34.30;100594.75;4951696;28;20350;-71
2023/07/06 10:25:01;;;;;;;2.25;1.10;;;;;;;23.52;34.43;100587.50;4966842;28;20512;-70
2023/07/06 10:27:35;;;;;;;4.78;1.45;;;;;;;23.64;33.82;100601.66;4977559;28;20111;-71
2023/07/06 10:30:08;;;;;;;3.10;1.40;;;;;;;23.65;33.53;100595.25;4968471;28;20051;-69
2023/07/06 10:32:40;;;;;;;2.72;1.25;;;;;;;23.91;32.73;100593.53;4963165;28;20133;-71
2023/07/06 10:35:18;;;;;;;2.35;1.20;;;;;;;23.92;33.16;100587.13;4983340;28;20491;-70
2023/07/06 10:37:46;;;;;;;2.70;1.75;;;;;;;23.82;32.94;100593.59;4977405;28;20088;-72
2023/07/06 10:40:24;;;;;;;2.22;1.60;;;;;;;23.70;33.33;100561.38;4974000;28;20050;-70
2023/07/06 10:43:11;;;;;;;4.47;1.40;;;;;;;23.96;32.33;100598.47;4979565;28;20458;-70
2023/07/06 10:45:46;;;;;;;2.42;1.70;;;;;;;23.98;32.97;100601.88;4995831;28;20569;-70
2023/07/06 10:48:21;;;;;;;3.92;1.35;;;;;;;24.18;33.53;100592.63;4989368;28;20050;-69
2023/07/06 10:51:13;;;;;;;1.95;1.17;;;;;;;24.51;32.18;100590.25;4966104;28;20105;-72
2023/07/06 10:53:47;;;;;;;2.30;1.27;;;;;;;24.75;31.36;100590.41;4963020;28;20053;-70
2023/07/06 10:56:21;;;;;;;2.80;1.20;;;;;;;24.35;31.56;100577.41;4986818;28;20111;-70
2023/07/06 10:58:57;;;;;;;2.33;2.08;;;;;;;24.35;32.08;100593.66;4980494;28;20043;-71
2023/07/06 11:01:37;;;;;;;2.08;1.10;;;;;;;24.53;31.26;100585.53;4987061;28;20059;-70
2023/07/06 11:04:45;;;;;;;3.08;1.30;;;;;;;24.56;31.48;100596.84;4973489;28;20117;-70
2023/07/06 11:07:34;;;;;;;1.50;1.10;;;;;;;24.42;32.02;100583.88;4963326;28;20241;-71
2023/07/06 11:10:13;;;;;;;1.87;1.00;;;;;;;24.46;32.17;100598.81;4978767;28;20125;-72
2023/07/06 11:13:02;;;;;;;3.20;1.80;;;;;;;24.66;32.02;100588.66;4973941;28;20477;-70
2023/07/06 11:15:35;;;;;;;1.73;1.30;;;;;;;24.98;31.83;100588.06;4979169;28;20106;-70
2023/07/06 11:18:29;;;;;;;3.25;1.25;;;;;;;24.94;31.14;100582.09;4992093;28;20098;-71
2023/07/06 11:21:16;;;;;;;3.13;1.05;;;;;;;24.60;30.59;100587.41;4962139;28;21612;-70
2023/07/06 11:23:50;;;;;;;2.85;1.35;;;;;;;24.44;31.20;100584.59;4995560;28;20069;-70
2023/07/06 11:26:47;;;;;;;3.20;1.20;;;;;;;24.37;31.53;100580.81;4975732;28;20043;-71
2023/07/06 11:29:18;;;;;;;2.65;1.20;;;;;;;24.53;32.18;100580.97;4980450;28;20641;-71
2023/07/06 11:31:48;;;;;;;2.72;1.20;;;;;;;24.64;30.91;100586.09;4968401;28;20109;-71
2023/07/06 11:34:36;;;;;;;4.38;1.23;;;;;;;24.52;31.04;100590.09;5001155;28;20927;-70
2023/07/06 11:37:12;;;;;;;1.70;1.30;;;;;;;24.86;31.42;100576.63;4998126;28;20046;-70
2023/07/06 11:39:40;;;;;;;2.50;1.27;;;;;;;25.15;29.62;100592.56;4986431;28;20077;-70
2023/07/06 11:42:32;;;;;;;1.85;1.30;;;;;;;24.88;29.31;100579.16;4974057;28;20059;-70
2023/07/06 11:45:05;;;;;;;1.10;1.00;;;;;;;24.88;30.16;100577.28;4996704;28;20046;-69